createdAt,value
2022-09-04T00:02:21.702Z,9.32
2022-09-04T00:05:03.738Z,9.70
2022-09-04T00:07:37.353Z,9.00
2022-09-04T00:10:29.872Z,9.60
2022-09-04T00:13:12.320Z,9.60
2022-09-04T00:15:43.676Z,8.65
2022-09-04T00:18:23.129Z,9.27
2022-09-04T00:21:27.518Z,9.77
2022-09-04T00:23:59.664Z,9.63
2022-09-04T00:26:44.379Z,11.63
2022-09-04T00:29:40.607Z,10.43
2022-09-04T00:32:25.977Z,9.57
2022-09-04T00:34:58.556Z,9.52
2022-09-04T00:37:32.744Z,9.18
2022-09-04T00:40:06.025Z,10.55
2022-09-04T00:43:19.056Z,10.20
2022-09-04T00:46:19.091Z,9.35
2022-09-04T00:49:03.743Z,9.07
2022-09-04T00:51:45.114Z,9.82
2022-09-04T00:54:56.955Z,9.23
2022-09-04T00:57:39.089Z,8.75
2022-09-04T01:00:17.858Z,9.68
2022-09-04T01:03:21.859Z,8.95
2022-09-04T01:06:25.080Z,9.38
2022-09-04T01:09:01.222Z,9.35
2022-09-04T01:11:49.629Z,9.13
2022-09-04T01:14:26.170Z,10.20
2022-09-04T01:17:04.889Z,9.23
2022-09-04T01:19:58.072Z,9.30
2022-09-04T01:22:44.260Z,9.50
2022-09-04T01:25:37.843Z,9.77
2022-09-04T01:28:14.692Z,9.02
2022-09-04T01:31:06.190Z,8.90
2022-09-04T01:33:51.165Z,8.43
2022-09-04T01:36:30.849Z,8.82
2022-09-04T01:38:59.966Z,9.38
2022-09-04T01:41:36.335Z,8.80
2022-09-04T01:44:07.134Z,9.40
2022-09-04T01:47:03.481Z,9.00
2022-09-04T01:49:37.682Z,9.10
2022-09-04T01:52:22.976Z,9.68
2022-09-04T01:54:58.759Z,9.18
2022-09-04T01:57:30.892Z,9.25
2022-09-04T02:00:19.946Z,9.23
2022-09-04T02:03:00.270Z,8.93
2022-09-04T02:08:33.939Z,9.43
2022-09-04T02:11:12.624Z,9.20
2022-09-04T02:13:53.689Z,9.80
2022-09-04T02:16:43.929Z,8.88
2022-09-04T02:19:37.697Z,9.57
2022-09-04T02:22:15.197Z,9.30
2022-09-04T02:25:06.215Z,9.20
2022-09-04T02:27:53.996Z,9.27
2022-09-04T02:30:21.179Z,9.25
2022-09-04T02:33:01.068Z,8.65
2022-09-04T02:35:37.539Z,9.52
2022-09-04T02:38:15.025Z,9.45
2022-09-04T02:41:03.998Z,9.60
2022-09-04T02:44:16.945Z,10.35
2022-09-04T02:47:13.621Z,9.30
2022-09-04T02:50:06.340Z,10.25
2022-09-04T02:52:59.582Z,9.45
2022-09-04T02:56:00.107Z,9.65
2022-09-04T03:01:28.912Z,9.35
2022-09-04T03:04:18.148Z,9.50
2022-09-04T03:07:07.017Z,9.27
2022-09-04T03:09:48.230Z,9.88
2022-09-04T03:12:37.746Z,9.68
2022-09-04T03:15:27.681Z,9.60
2022-09-04T03:18:21.120Z,10.25
2022-09-04T03:20:56.350Z,9.52
2022-09-04T03:23:27.162Z,9.15
2022-09-04T03:25:57.093Z,9.93
2022-09-04T03:28:43.737Z,9.65
2022-09-04T03:31:40.588Z,9.88
2022-09-04T03:34:56.561Z,9.55
2022-09-04T03:37:30.843Z,9.77
2022-09-04T03:40:32.309Z,9.95
2022-09-04T03:43:07.891Z,9.70
2022-09-04T03:45:53.464Z,9.48
2022-09-04T03:48:34.508Z,9.63
2022-09-04T03:51:18.876Z,10.25
2022-09-04T03:53:53.576Z,9.20
2022-09-04T03:56:52.255Z,9.43
2022-09-04T03:59:49.804Z,9.40
2022-09-04T04:02:34.519Z,9.40
2022-09-04T04:05:09.700Z,9.50
2022-09-04T04:08:09.825Z,10.10
2022-09-04T04:10:52.711Z,9.90
2022-09-04T04:13:28.591Z,9.85
2022-09-04T04:16:10.963Z,9.88
2022-09-04T04:19:06.926Z,9.25
2022-09-04T04:22:10.393Z,9.60
2022-09-04T04:24:39.465Z,10.43
2022-09-04T04:27:25.558Z,9.63
2022-09-04T04:30:14.104Z,9.88
2022-09-04T04:32:59.170Z,9.38
2022-09-04T04:35:28.590Z,9.82
2022-09-04T04:38:12.718Z,10.10
2022-09-04T04:41:16.941Z,9.65
2022-09-04T04:44:11.186Z,10.15
2022-09-04T04:46:54.587Z,10.25
2022-09-04T04:49:39.435Z,10.13
2022-09-04T04:52:38.971Z,10.70
2022-09-04T04:55:24.638Z,9.97
2022-09-04T04:58:07.762Z,9.98
2022-09-04T05:00:40.698Z,10.48
2022-09-04T05:03:46.115Z,10.40
2022-09-04T05:06:15.232Z,10.25
2022-09-04T05:09:09.313Z,10.07
2022-09-04T05:11:53.738Z,9.65
2022-09-04T05:14:33.691Z,10.07
2022-09-04T05:17:14.847Z,10.00
2022-09-04T05:19:52.408Z,10.73
2022-09-04T05:22:38.763Z,10.40
2022-09-04T05:25:21.680Z,11.85
2022-09-04T05:28:10.089Z,10.65
2022-09-04T05:31:13.992Z,10.55
2022-09-04T05:33:59.306Z,13.75
2022-09-04T05:36:36.783Z,11.07
2022-09-04T05:39:21.858Z,10.80
2022-09-04T05:42:15.576Z,10.10
2022-09-04T05:45:19.694Z,11.02
2022-09-04T05:48:08.117Z,10.75
2022-09-04T05:50:53.976Z,10.50
2022-09-04T05:53:32.628Z,10.32
2022-09-04T05:56:11.191Z,10.93
2022-09-04T05:59:01.341Z,10.55
2022-09-04T06:01:39.179Z,11.43
2022-09-04T06:04:24.910Z,9.98
2022-09-04T06:06:58.875Z,10.98
2022-09-04T06:09:43.578Z,9.90
2022-09-04T06:12:50.757Z,10.43
2022-09-04T06:15:26.442Z,10.45
2022-09-04T06:18:14.746Z,11.23
2022-09-04T06:20:59.256Z,10.40
2022-09-04T06:23:49.938Z,9.60
2022-09-04T06:26:40.363Z,10.35
2022-09-04T06:29:25.214Z,10.10
2022-09-04T06:32:04.384Z,11.25
2022-09-04T06:34:55.983Z,9.63
2022-09-04T06:37:31.537Z,10.35
2022-09-04T06:40:19.253Z,9.90
2022-09-04T06:43:05.652Z,9.55
2022-09-04T06:45:44.215Z,9.18
2022-09-04T06:48:38.299Z,9.90
2022-09-04T06:51:17.017Z,9.23
2022-09-04T06:53:50.431Z,9.82
2022-09-04T06:56:17.313Z,9.85
2022-09-04T06:59:00.586Z,9.45
2022-09-04T07:01:40.497Z,9.68
2022-09-04T07:04:25.632Z,9.50
2022-09-04T07:07:10.126Z,9.52
2022-09-04T07:09:45.464Z,9.63
2022-09-04T07:12:29.547Z,9.80
2022-09-04T07:15:21.251Z,9.48
2022-09-04T07:18:23.217Z,9.95
2022-09-04T07:21:06.287Z,12.98
2022-09-04T07:23:47.798Z,9.68
2022-09-04T07:26:20.023Z,9.85
2022-09-04T07:29:11.454Z,9.68
2022-09-04T07:31:59.499Z,9.85
2022-09-04T07:34:37.940Z,9.68
2022-09-04T07:37:10.394Z,9.82
2022-09-04T07:39:49.102Z,9.93
2022-09-04T07:42:43.798Z,10.68
2022-09-04T07:45:20.073Z,10.45
2022-09-04T07:48:08.066Z,10.35
2022-09-04T07:50:40.092Z,9.90
2022-09-04T07:53:24.994Z,9.80
2022-09-04T07:56:06.608Z,9.70
2022-09-04T07:58:44.996Z,10.57
2022-09-04T08:01:52.716Z,10.07
2022-09-04T08:04:44.053Z,10.93
2022-09-04T08:07:39.855Z,9.73
2022-09-04T08:10:31.572Z,11.27
2022-09-04T08:13:14.123Z,13.25
2022-09-04T08:15:43.812Z,10.75
2022-09-04T08:19:01.566Z,10.77
2022-09-04T08:21:33.629Z,10.68
2022-09-04T08:24:06.454Z,10.50
2022-09-04T08:27:10.484Z,10.98
2022-09-04T08:29:58.713Z,11.25
2022-09-04T08:32:53.316Z,10.23
2022-09-04T08:35:41.151Z,10.50
2022-09-04T08:38:16.423Z,14.00
2022-09-04T08:41:06.892Z,13.77
2022-09-04T08:43:55.462Z,10.00
2022-09-04T08:46:28.746Z,11.95
2022-09-04T08:49:10.492Z,10.07
2022-09-04T08:51:58.622Z,10.65
2022-09-04T08:54:31.244Z,10.85
2022-09-04T08:57:36.006Z,10.60
2022-09-04T09:00:11.503Z,11.32
2022-09-04T09:03:15.533Z,11.02
2022-09-04T09:06:19.568Z,11.32
2022-09-04T09:09:19.207Z,10.40
2022-09-04T09:12:16.945Z,10.63
2022-09-04T09:15:11.111Z,10.98
2022-09-04T09:17:57.854Z,10.45
2022-09-04T09:21:02.264Z,9.75
2022-09-04T09:23:32.091Z,10.60
2022-09-04T09:26:21.182Z,10.43
2022-09-04T09:28:50.895Z,10.40
2022-09-04T09:31:35.566Z,10.05
2022-09-04T09:34:41.863Z,10.10
2022-09-04T09:37:29.815Z,10.15
2022-09-04T09:40:21.264Z,9.98
2022-09-04T09:43:13.040Z,9.90
2022-09-04T09:46:04.741Z,9.60
2022-09-04T09:48:50.514Z,9.60
2022-09-04T09:51:51.689Z,9.95
2022-09-04T09:54:30.539Z,10.98
2022-09-04T09:57:06.691Z,10.13
2022-09-04T10:00:13.048Z,11.25
2022-09-04T10:02:42.910Z,9.25
2022-09-04T10:05:40.159Z,9.48
2022-09-04T10:08:40.549Z,9.88
2022-09-04T10:11:29.163Z,9.60
2022-09-04T10:14:29.857Z,9.82
2022-09-04T10:17:15.046Z,9.52
2022-09-04T10:20:10.537Z,9.70
2022-09-04T10:22:46.295Z,9.63
2022-09-04T10:25:31.187Z,9.20
2022-09-04T10:28:19.323Z,9.48
2022-09-04T10:31:07.894Z,10.25
2022-09-04T10:33:49.817Z,9.50
2022-09-04T10:36:35.965Z,9.82
2022-09-04T10:39:55.633Z,10.13
2022-09-04T10:42:38.325Z,10.13
2022-09-04T10:45:27.567Z,10.65
2022-09-04T10:48:08.580Z,10.05
2022-09-04T10:50:49.062Z,10.43
2022-09-04T10:53:51.715Z,10.07
2022-09-04T10:56:27.245Z,9.43
2022-09-04T10:59:13.689Z,8.70
2022-09-04T11:02:15.798Z,9.05
2022-09-04T11:05:20.575Z,11.15
2022-09-04T11:08:25.597Z,11.57
2022-09-04T11:11:25.442Z,11.38
2022-09-04T11:14:13.153Z,11.15
2022-09-04T11:16:58.189Z,10.18
2022-09-04T11:19:32.435Z,9.77
2022-09-04T11:22:02.374Z,9.43
2022-09-04T11:24:54.705Z,8.88
2022-09-04T11:27:45.805Z,11.73
2022-09-04T11:30:31.849Z,9.68
2022-09-04T11:33:22.987Z,9.63
2022-09-04T11:36:03.638Z,9.18
2022-09-04T11:39:08.015Z,9.50
2022-09-04T11:42:13.992Z,9.48
2022-09-04T11:44:49.954Z,9.45
2022-09-04T11:47:55.745Z,9.57
2022-09-04T11:50:43.060Z,10.35
2022-09-04T11:53:20.002Z,9.27
2022-09-04T11:56:21.994Z,10.90
2022-09-04T11:58:52.283Z,9.30
2022-09-04T12:01:34.456Z,9.40
2022-09-04T12:04:32.316Z,9.70
2022-09-04T12:07:18.090Z,9.52
2022-09-04T12:10:09.340Z,9.55
2022-09-04T12:13:15.243Z,9.52
2022-09-04T12:15:58.568Z,9.35
2022-09-04T12:18:55.160Z,9.85
2022-09-04T12:21:53.887Z,9.73
2022-09-04T12:24:56.935Z,9.68
2022-09-04T12:27:45.026Z,9.63
2022-09-04T12:30:27.688Z,9.57
2022-09-04T12:33:08.538Z,8.88
2022-09-04T12:35:43.627Z,9.15
2022-09-04T12:38:39.464Z,9.45
2022-09-04T12:41:18.537Z,9.60
2022-09-04T12:44:17.887Z,9.57
2022-09-04T12:47:03.131Z,9.68
2022-09-04T12:50:00.127Z,9.48
2022-09-04T12:52:58.561Z,9.38
2022-09-04T12:56:10.009Z,9.40
2022-09-04T12:59:01.257Z,9.60
2022-09-04T13:01:55.635Z,9.52
2022-09-04T13:04:27.627Z,9.32
2022-09-04T13:07:15.643Z,9.98
2022-09-04T13:10:07.177Z,10.10
2022-09-04T13:13:10.538Z,9.23
2022-09-04T13:16:01.670Z,8.93
2022-09-04T13:18:48.036Z,8.75
2022-09-04T13:21:38.802Z,9.10
2022-09-04T13:24:14.517Z,9.50
2022-09-04T13:27:08.279Z,10.32
2022-09-04T13:30:22.165Z,9.50
2022-09-04T13:33:14.339Z,9.80
2022-09-04T13:35:58.558Z,9.73
2022-09-04T13:38:58.068Z,9.30
2022-09-04T13:44:40.920Z,8.88
2022-09-04T13:47:32.414Z,9.52
2022-09-04T13:50:14.984Z,9.45
2022-09-04T13:52:50.721Z,9.65
2022-09-04T13:55:30.484Z,8.95
2022-09-04T13:58:11.053Z,8.63
2022-09-04T14:00:46.256Z,8.73
2022-09-04T14:03:38.931Z,9.50
2022-09-04T14:06:10.331Z,8.77
2022-09-04T14:08:40.062Z,9.48
2022-09-04T14:11:56.882Z,9.18
2022-09-04T14:14:41.749Z,8.75
2022-09-04T14:17:09.721Z,8.88
2022-09-04T14:20:03.316Z,9.10
2022-09-04T14:23:14.109Z,8.90
2022-09-04T14:25:56.682Z,9.13
2022-09-04T14:28:38.004Z,8.70
2022-09-04T14:31:14.407Z,8.98
2022-09-04T14:33:45.024Z,8.93
2022-09-04T14:36:40.967Z,9.13
2022-09-04T14:39:20.630Z,8.68
2022-09-04T14:42:29.709Z,8.65
2022-09-04T14:45:13.762Z,8.60
2022-09-04T14:47:55.112Z,12.38
2022-09-04T14:50:30.810Z,9.15
2022-09-04T14:53:04.853Z,8.55
2022-09-04T14:55:34.866Z,9.10
2022-09-04T14:58:27.933Z,11.98
2022-09-04T15:01:09.585Z,9.25
2022-09-04T15:04:04.449Z,8.60
2022-09-04T15:07:09.752Z,8.77
2022-09-04T15:09:38.032Z,9.15
2022-09-04T15:12:25.237Z,8.90
2022-09-04T15:15:11.285Z,10.57
2022-09-04T15:17:46.867Z,8.73
2022-09-04T15:20:30.782Z,9.05
2022-09-04T15:23:05.036Z,9.18
2022-09-04T15:25:59.818Z,8.88
2022-09-04T15:28:55.405Z,9.10
2022-09-04T15:31:32.048Z,9.02
2022-09-04T15:34:09.834Z,9.35
2022-09-04T15:36:39.334Z,9.40
2022-09-04T15:41:50.605Z,9.68
2022-09-04T15:44:35.651Z,9.10
2022-09-04T15:47:16.421Z,8.75
2022-09-04T15:49:50.937Z,10.48
2022-09-04T15:52:30.033Z,9.15
2022-09-04T15:55:31.502Z,8.68
2022-09-04T15:58:15.848Z,9.20
2022-09-04T16:01:10.193Z,9.30
2022-09-04T16:03:47.485Z,8.93
2022-09-04T16:06:21.018Z,9.23
2022-09-04T16:09:33.616Z,8.73
2022-09-04T16:12:44.045Z,9.20
2022-09-04T16:20:49.246Z,8.88
2022-09-04T16:24:06.515Z,8.77
2022-09-04T16:27:12.003Z,9.10
2022-09-04T16:33:34.029Z,8.70
2022-09-04T16:36:14.002Z,9.60
2022-09-04T16:38:57.522Z,8.57
2022-09-04T16:41:37.742Z,9.90
2022-09-04T16:44:32.770Z,14.32
2022-09-04T16:47:16.396Z,10.55
2022-09-04T16:50:19.829Z,9.50
2022-09-04T16:53:12.523Z,9.68
2022-09-04T16:56:07.506Z,9.63
2022-09-04T16:58:55.028Z,9.48
2022-09-04T17:01:39.470Z,11.82
2022-09-04T17:04:52.486Z,9.32
2022-09-04T17:07:36.107Z,9.35
2022-09-04T17:10:09.270Z,10.00
2022-09-04T17:13:03.142Z,10.23
2022-09-04T17:15:53.939Z,9.93
2022-09-04T17:18:24.706Z,9.68
2022-09-04T17:24:58.095Z,10.95
2022-09-04T17:29:01.631Z,10.57
2022-09-04T17:29:11.751Z,11.32
2022-09-04T17:30:32.593Z,10.80
2022-09-04T17:38:24.378Z,10.57
2022-09-04T17:40:36.454Z,11.40
2022-09-04T17:40:53.289Z,11.13
2022-09-04T17:43:21.413Z,10.57
2022-09-04T17:45:55.404Z,11.02
2022-09-04T17:48:30.243Z,10.90
2022-09-04T17:51:04.889Z,11.18
2022-09-04T17:53:36.232Z,11.52
2022-09-04T17:56:13.946Z,12.00
2022-09-04T17:58:43.881Z,11.60
2022-09-04T18:01:23.828Z,13.30
2022-09-04T18:04:22.652Z,13.23
2022-09-04T18:07:33.558Z,12.10
2022-09-04T18:10:19.438Z,12.48
2022-09-04T18:12:54.976Z,11.05
2022-09-04T18:15:33.634Z,12.10
2022-09-04T18:18:25.110Z,12.38
2022-09-04T18:21:14.017Z,11.82
2022-09-04T18:23:51.323Z,12.38
2022-09-04T18:26:22.790Z,12.25
2022-09-04T18:29:55.063Z,12.30
2022-09-04T18:37:10.757Z,11.77
2022-09-04T18:37:19.447Z,12.15
2022-09-04T18:38:44.547Z,12.98
2022-09-04T18:49:35.873Z,11.95
2022-09-04T18:50:24.612Z,11.90
2022-09-04T18:50:32.529Z,12.43
2022-09-04T18:50:51.001Z,12.45
2022-09-04T18:53:20.324Z,11.10
2022-09-04T18:56:20.813Z,13.35
2022-09-04T18:58:57.514Z,16.63
2022-09-04T19:01:38.790Z,13.00
2022-09-04T19:04:29.562Z,14.52
2022-09-04T19:07:07.209Z,13.75
2022-09-04T19:09:59.123Z,11.90
2022-09-04T19:12:47.204Z,11.95
2022-09-04T19:15:37.541Z,12.98
2022-09-04T19:18:26.875Z,12.23
2022-09-04T19:21:14.769Z,12.37
2022-09-04T19:23:44.774Z,12.02
2022-09-04T19:26:35.690Z,12.35
2022-09-04T19:29:20.388Z,11.93
2022-09-04T19:32:13.819Z,11.63
2022-09-04T19:34:48.808Z,12.02
2022-09-04T19:42:07.476Z,11.95
2022-09-04T19:45:54.488Z,13.90
2022-09-04T19:46:08.898Z,11.65
2022-09-04T19:46:28.073Z,12.25
2022-09-04T19:53:17.506Z,14.70
2022-09-04T19:53:30.876Z,12.00
2022-09-04T19:55:24.866Z,12.30
2022-09-04T19:58:08.624Z,12.48
2022-09-04T20:00:48.094Z,12.52
2022-09-04T20:03:28.992Z,12.95
2022-09-04T20:06:07.752Z,11.57
2022-09-04T20:08:52.640Z,13.60
2022-09-04T20:11:34.601Z,13.90
2022-09-04T20:14:14.306Z,11.82
2022-09-04T20:17:09.006Z,12.23
2022-09-04T20:19:41.521Z,12.77
2022-09-04T20:22:46.204Z,18.80
2022-09-04T20:25:18.380Z,12.63
2022-09-04T20:27:54.125Z,12.60
2022-09-04T20:30:24.552Z,14.75
2022-09-04T20:33:02.864Z,12.70
2022-09-04T20:35:38.082Z,12.85
2022-09-04T20:38:22.969Z,12.63
2022-09-04T20:40:58.135Z,12.55
2022-09-04T20:43:47.565Z,12.75
2022-09-04T20:52:40.475Z,13.50
2022-09-04T20:52:59.377Z,12.63
2022-09-04T20:53:07.971Z,11.88
2022-09-04T20:55:37.514Z,12.35
2022-09-04T21:03:09.791Z,11.80
2022-09-04T21:03:12.774Z,11.60
2022-09-04T21:04:42.246Z,11.50
2022-09-04T21:07:47.169Z,12.23
2022-09-04T21:10:29.378Z,13.40
2022-09-04T21:13:14.510Z,12.48
2022-09-04T21:15:47.079Z,11.80
2022-09-04T21:18:34.373Z,12.32
2022-09-04T21:21:01.050Z,14.20
2022-09-04T21:24:03.272Z,12.32
2022-09-04T21:26:52.121Z,12.13
2022-09-04T21:29:37.323Z,11.75
2022-09-04T21:32:48.666Z,11.88
2022-09-04T21:35:29.244Z,12.20
2022-09-04T21:38:08.828Z,12.35
2022-09-04T21:40:51.268Z,11.63
2022-09-04T21:43:42.569Z,12.35
2022-09-04T21:46:28.957Z,12.63
2022-09-04T21:49:08.168Z,11.77
2022-09-04T21:52:09.110Z,11.75
2022-09-04T21:57:57.707Z,11.75
2022-09-04T22:02:38.665Z,11.80
2022-09-04T22:02:42.823Z,12.07
2022-09-04T22:04:10.911Z,12.27
2022-09-04T22:09:09.875Z,12.27
2022-09-04T22:13:30.993Z,12.75
2022-09-04T22:13:41.161Z,14.52
2022-09-04T22:16:42.073Z,11.38
2022-09-04T22:19:16.635Z,11.82
2022-09-04T22:21:43.435Z,11.10
2022-09-04T22:24:36.313Z,11.02
2022-09-04T22:27:22.746Z,11.23
2022-09-04T22:29:53.000Z,11.50
2022-09-04T22:35:41.775Z,11.43
2022-09-04T22:38:33.243Z,11.90
2022-09-04T22:41:11.555Z,11.60
2022-09-04T22:43:45.368Z,11.88
2022-09-04T22:46:30.810Z,11.38
2022-09-04T22:49:11.989Z,11.68
2022-09-04T22:52:10.173Z,11.15
2022-09-04T22:54:59.610Z,11.75
2022-09-04T22:57:45.117Z,11.00
2022-09-04T23:00:18.841Z,10.35
2022-09-04T23:03:21.945Z,10.70
2022-09-04T23:12:20.746Z,11.07
2022-09-04T23:13:50.738Z,11.35
2022-09-04T23:13:57.623Z,11.75
2022-09-04T23:15:48.525Z,11.32
2022-09-04T23:23:18.729Z,10.85
2022-09-04T23:26:34.340Z,11.07
2022-09-04T23:26:43.383Z,11.27
2022-09-04T23:27:36.601Z,11.00
2022-09-04T23:30:26.568Z,11.63
2022-09-04T23:33:03.783Z,11.50
2022-09-04T23:36:29.675Z,11.27
2022-09-04T23:39:08.795Z,12.32
2022-09-04T23:41:53.346Z,10.73
2022-09-04T23:44:47.860Z,11.68
2022-09-04T23:47:50.411Z,11.05
2022-09-04T23:50:28.423Z,12.40
2022-09-04T23:53:03.672Z,11.30
2022-09-04T23:56:05.542Z,11.30
2022-09-04T23:59:20.893Z,11.68
